createdAt,value
2018-01-17T00:02:05.898Z,5.73
2018-01-17T00:04:33.249Z,5.97
2018-01-17T00:17:59.904Z,5.40
2018-01-17T00:20:27.276Z,6.70
2018-01-17T00:22:54.684Z,5.00
2018-01-17T00:25:22.067Z,6.13
2018-01-17T00:27:49.454Z,6.20
2018-01-17T00:30:16.828Z,5.90
2018-01-17T00:32:44.200Z,5.97
2018-01-17T00:35:11.606Z,5.87
2018-01-17T00:37:39.033Z,5.40
2018-01-17T00:40:06.444Z,5.27
2018-01-17T00:42:34.034Z,5.17
2018-01-17T00:45:01.593Z,6.47
2018-01-17T00:47:29.153Z,5.57
2018-01-17T00:49:56.548Z,5.77
2018-01-17T00:52:24.104Z,5.50
2018-01-17T00:54:51.728Z,5.87
2018-01-17T00:57:19.292Z,5.87
2018-01-17T00:59:46.847Z,5.53
2018-01-17T01:02:14.509Z,5.90
2018-01-17T01:04:42.124Z,5.73
2018-01-17T01:07:09.628Z,5.87
2018-01-17T01:09:37.191Z,5.50
2018-01-17T01:12:04.747Z,5.80
2018-01-17T01:14:32.180Z,6.07
2018-01-17T01:16:59.661Z,6.00
2018-01-17T01:19:27.221Z,5.90
2018-01-17T01:21:54.713Z,6.90
2018-01-17T01:24:22.237Z,5.87
2018-01-17T01:26:50.001Z,6.70
2018-01-17T01:29:17.562Z,6.47
2018-01-17T01:31:45.063Z,6.77
2018-01-17T01:34:12.782Z,6.00
2018-01-17T01:36:40.342Z,7.17
2018-01-17T01:39:07.899Z,6.40
2018-01-17T01:41:35.396Z,7.00
2018-01-17T01:44:02.917Z,6.40
2018-01-17T01:46:30.478Z,7.20
2018-01-17T01:49:01.006Z,6.80
2018-01-17T01:51:28.464Z,6.33
2018-01-17T01:53:56.022Z,6.80
2018-01-17T01:56:23.581Z,7.13
2018-01-17T01:58:51.140Z,6.43
2018-01-17T02:01:18.700Z,7.13
2018-01-17T02:03:46.260Z,5.80
2018-01-17T02:06:13.819Z,5.90
2018-01-17T02:08:41.248Z,6.17
2018-01-17T02:11:08.668Z,5.80
2018-01-17T02:13:36.190Z,6.53
2018-01-17T02:16:03.750Z,6.77
2018-01-17T02:18:31.309Z,6.60
2018-01-17T02:20:58.868Z,6.10
2018-01-17T02:23:26.428Z,6.73
2018-01-17T02:25:53.987Z,6.20
2018-01-17T02:28:21.547Z,7.00
2018-01-17T02:30:49.107Z,6.60
2018-01-17T02:33:16.665Z,7.30
2018-01-17T02:35:44.227Z,7.27
2018-01-17T02:38:11.786Z,7.30
2018-01-17T02:40:40.000Z,6.97
2018-01-17T02:43:07.723Z,6.47
2018-01-17T02:45:35.282Z,6.37
2018-01-17T02:48:02.844Z,6.33
2018-01-17T02:50:30.744Z,6.50
2018-01-17T02:52:58.267Z,6.50
2018-01-17T02:55:25.729Z,6.20
2018-01-17T02:57:53.283Z,6.67
2018-01-17T03:00:20.843Z,6.93
2018-01-17T03:02:48.336Z,6.87
2018-01-17T03:05:15.764Z,7.23
2018-01-17T03:07:43.316Z,7.67
2018-01-17T03:10:11.080Z,7.10
2018-01-17T03:12:39.151Z,7.63
2018-01-17T03:15:06.712Z,6.80
2018-01-17T03:17:34.272Z,6.60
2018-01-17T03:20:01.944Z,6.63
2018-01-17T03:22:29.347Z,7.37
2018-01-17T03:24:56.845Z,6.17
2018-01-17T03:27:24.341Z,7.17
2018-01-17T03:29:51.863Z,6.50
2018-01-17T03:32:19.422Z,6.73
2018-01-17T03:34:47.120Z,7.23
2018-01-17T03:37:14.643Z,7.20
2018-01-17T03:39:42.919Z,6.90
2018-01-17T03:42:10.478Z,7.90
2018-01-17T03:44:38.038Z,7.77
2018-01-17T03:47:05.598Z,6.93
2018-01-17T03:49:33.008Z,7.67
2018-01-17T03:52:00.614Z,7.10
2018-01-17T03:54:28.173Z,6.50
2018-01-17T03:56:55.632Z,6.10
2018-01-17T03:59:23.191Z,6.00
2018-01-17T04:01:50.749Z,6.53
2018-01-17T04:04:18.148Z,6.80
2018-01-17T04:06:45.600Z,7.27
2018-01-17T04:09:13.121Z,5.87
2018-01-17T04:11:40.578Z,5.73
2018-01-17T04:14:08.137Z,6.50
2018-01-17T04:16:35.640Z,5.83
2018-01-17T04:19:03.153Z,6.23
2018-01-17T04:21:30.905Z,6.07
2018-01-17T04:23:58.481Z,6.20
2018-01-17T04:26:25.908Z,5.83
2018-01-17T04:28:53.494Z,6.03
2018-01-17T04:31:20.985Z,5.60
2018-01-17T04:33:48.556Z,5.50
2018-01-17T04:36:16.172Z,5.87
2018-01-17T04:38:43.668Z,5.80
2018-01-17T04:41:11.290Z,5.50
2018-01-17T04:43:38.953Z,5.50
2018-01-17T04:46:06.614Z,5.30
2018-01-17T04:48:34.044Z,6.20
2018-01-17T04:51:01.576Z,5.00
2018-01-17T04:53:29.088Z,5.23
2018-01-17T04:55:56.646Z,5.20
2018-01-17T04:58:24.206Z,4.93
2018-01-17T05:00:51.700Z,5.37
2018-01-17T05:03:19.324Z,4.63
2018-01-17T05:05:46.886Z,5.23
2018-01-17T05:08:14.445Z,5.30
2018-01-17T05:10:41.912Z,5.43
2018-01-17T05:13:09.460Z,5.57
2018-01-17T05:15:36.864Z,4.93
2018-01-17T05:18:04.268Z,5.10
2018-01-17T05:20:31.742Z,5.60
2018-01-17T05:22:59.287Z,5.30
2018-01-17T05:25:26.746Z,5.90
2018-01-17T05:27:54.305Z,5.27
2018-01-17T05:30:21.703Z,5.30
2018-01-17T05:32:49.220Z,5.30
2018-01-17T05:35:16.723Z,6.47
2018-01-17T05:37:44.168Z,5.30
2018-01-17T05:40:12.820Z,7.00
2018-01-17T05:42:40.312Z,5.83
2018-01-17T05:45:07.837Z,5.83
2018-01-17T05:47:35.396Z,7.10
2018-01-17T05:50:02.961Z,6.40
2018-01-17T05:52:30.516Z,6.30
2018-01-17T05:54:58.074Z,6.03
2018-01-17T05:57:25.633Z,7.00
2018-01-17T05:59:53.131Z,6.30
2018-01-17T06:02:20.657Z,7.03
2018-01-17T06:04:48.108Z,7.30
2018-01-17T06:07:18.924Z,8.00
2018-01-17T06:09:46.399Z,7.20
2018-01-17T06:12:14.164Z,7.13
2018-01-17T06:14:41.656Z,7.10
2018-01-17T06:17:09.180Z,7.43
2018-01-17T06:19:36.740Z,5.87
2018-01-17T06:22:04.302Z,8.17
2018-01-17T06:24:31.859Z,6.80
2018-01-17T06:26:59.521Z,7.40
2018-01-17T06:29:27.080Z,6.80
2018-01-17T06:31:54.639Z,7.27
2018-01-17T06:34:22.131Z,6.70
2018-01-17T06:36:49.603Z,6.47
2018-01-17T06:39:17.318Z,7.50
2018-01-17T06:41:44.836Z,6.93
2018-01-17T06:44:12.603Z,7.20
2018-01-17T06:46:39.996Z,6.87
2018-01-17T06:49:07.560Z,7.60
2018-01-17T06:51:34.958Z,8.27
2018-01-17T06:54:02.676Z,7.27
2018-01-17T06:56:30.235Z,7.43
2018-01-17T06:58:57.795Z,7.93
2018-01-17T07:01:25.243Z,8.50
2018-01-17T07:03:52.642Z,7.87
2018-01-17T07:06:20.267Z,8.30
2018-01-17T07:08:47.826Z,8.20
2018-01-17T07:11:15.283Z,8.20
2018-01-17T07:13:42.728Z,8.70
2018-01-17T07:16:10.301Z,8.90
2018-01-17T07:18:37.859Z,9.00
2018-01-17T07:21:05.522Z,9.30
2018-01-17T07:23:32.960Z,9.40
2018-01-17T07:26:00.497Z,8.30
2018-01-17T07:28:28.097Z,8.90
2018-01-17T07:30:55.527Z,10.50
2018-01-17T07:33:22.947Z,14.13
2018-01-17T07:35:50.392Z,11.90
2018-01-17T07:38:17.822Z,10.00
2018-01-17T07:40:45.234Z,9.57
2018-01-17T07:43:12.839Z,10.10
2018-01-17T07:45:40.400Z,8.93
2018-01-17T07:48:07.892Z,9.60
2018-01-17T07:50:35.416Z,10.40
2018-01-17T07:53:03.012Z,9.97
2018-01-17T07:55:30.534Z,9.70
2018-01-17T07:57:58.093Z,9.87
2018-01-17T08:00:25.595Z,9.57
2018-01-17T08:02:53.110Z,10.80
2018-01-17T08:05:20.669Z,10.37
2018-01-17T08:07:48.230Z,12.00
2018-01-17T08:10:15.788Z,10.13
2018-01-17T08:12:43.347Z,10.80
2018-01-17T08:15:10.751Z,10.93
2018-01-17T08:17:38.372Z,9.50
2018-01-17T08:20:05.924Z,10.10
2018-01-17T08:22:33.483Z,10.53
2018-01-17T08:25:01.042Z,10.33
2018-01-17T08:27:28.605Z,9.93
2018-01-17T08:29:56.161Z,10.70
2018-01-17T08:32:23.721Z,10.00
2018-01-17T08:34:51.188Z,9.93
2018-01-17T08:37:18.737Z,9.77
2018-01-17T08:39:46.296Z,10.23
2018-01-17T08:42:13.748Z,11.17
2018-01-17T08:44:41.188Z,10.83
2018-01-17T08:47:12.661Z,10.80
2018-01-17T08:49:40.222Z,9.47
2018-01-17T08:52:07.781Z,10.90
2018-01-17T08:54:35.544Z,11.07
2018-01-17T08:57:03.039Z,10.60
2018-01-17T08:59:30.493Z,9.70
2018-01-17T09:01:58.017Z,10.27
2018-01-17T09:04:25.580Z,9.13
2018-01-17T09:06:53.137Z,10.40
2018-01-17T09:09:20.630Z,9.40
2018-01-17T09:11:48.257Z,9.70
2018-01-17T09:14:15.916Z,9.33
2018-01-17T09:16:43.383Z,9.63
2018-01-17T09:19:10.868Z,10.23
2018-01-17T09:21:38.492Z,9.80
2018-01-17T09:24:06.052Z,9.07
2018-01-17T09:26:33.543Z,9.50
2018-01-17T09:29:01.111Z,9.50
2018-01-17T09:31:28.730Z,8.90
2018-01-17T09:33:56.188Z,9.53
2018-01-17T09:36:23.748Z,9.53
2018-01-17T09:38:51.246Z,8.70
2018-01-17T09:41:18.764Z,9.80
2018-01-17T09:43:46.324Z,9.07
2018-01-17T09:46:13.819Z,9.67
2018-01-17T09:48:41.280Z,8.87
2018-01-17T09:51:08.796Z,10.30
2018-01-17T09:53:36.357Z,9.70
2018-01-17T09:56:03.916Z,7.97
2018-01-17T09:58:31.474Z,6.07
2018-01-17T10:00:58.931Z,8.60
2018-01-17T10:03:26.435Z,7.77
2018-01-17T10:05:53.948Z,8.20
2018-01-17T10:08:21.405Z,8.13
2018-01-17T10:10:48.965Z,9.60
2018-01-17T10:13:16.728Z,8.00
2018-01-17T10:15:44.233Z,9.00
2018-01-17T10:18:11.745Z,7.50
2018-01-17T10:20:39.305Z,8.40
2018-01-17T10:23:07.376Z,7.97
2018-01-17T10:25:34.935Z,8.10
2018-01-17T10:28:02.432Z,8.93
2018-01-17T10:30:29.952Z,8.47
2018-01-17T10:32:57.443Z,7.97
2018-01-17T10:35:24.969Z,8.43
2018-01-17T10:37:52.527Z,8.63
2018-01-17T10:40:20.088Z,6.60
2018-01-17T10:42:47.646Z,7.27
2018-01-17T10:45:15.206Z,7.43
2018-01-17T10:47:42.766Z,7.00
2018-01-17T10:50:10.435Z,7.90
2018-01-17T10:52:38.000Z,6.60
2018-01-17T10:55:05.547Z,8.00
2018-01-17T10:57:33.053Z,6.90
2018-01-17T11:00:00.664Z,6.70
2018-01-17T11:02:28.223Z,8.03
2018-01-17T11:04:55.886Z,6.87
2018-01-17T11:07:23.384Z,7.67
2018-01-17T11:09:50.905Z,7.47
2018-01-17T11:12:18.391Z,7.20
2018-01-17T11:14:45.800Z,6.93
2018-01-17T11:17:13.274Z,7.70
2018-01-17T11:19:40.835Z,5.37
2018-01-17T11:22:08.234Z,6.10
2018-01-17T11:24:35.898Z,6.60
2018-01-17T11:27:03.411Z,5.20
2018-01-17T11:29:30.969Z,6.43
2018-01-17T11:31:58.528Z,5.83
2018-01-17T11:34:26.040Z,5.60
2018-01-17T11:36:53.649Z,5.60
2018-01-17T11:39:21.060Z,5.93
2018-01-17T11:41:48.561Z,5.37
2018-01-17T11:44:16.123Z,5.70
2018-01-17T11:46:44.089Z,7.83
2018-01-17T11:49:11.581Z,6.00
2018-01-17T11:51:39.041Z,5.67
2018-01-17T11:54:06.596Z,6.20
2018-01-17T11:56:34.040Z,5.50
2018-01-17T11:59:01.512Z,6.40
2018-01-17T12:01:29.063Z,7.20
2018-01-17T12:03:56.800Z,5.37
2018-01-17T12:06:24.373Z,6.70
2018-01-17T12:08:51.919Z,6.97
2018-01-17T12:11:19.479Z,6.60
2018-01-17T12:13:46.973Z,5.97
2018-01-17T12:16:14.597Z,7.00
2018-01-17T12:18:42.259Z,6.20
2018-01-17T12:21:09.691Z,6.50
2018-01-17T12:23:37.275Z,7.40
2018-01-17T12:26:04.769Z,5.93
2018-01-17T12:28:32.228Z,6.10
2018-01-17T12:30:59.752Z,7.33
2018-01-17T12:33:27.310Z,7.30
2018-01-17T12:35:54.869Z,6.80
2018-01-17T12:38:23.248Z,5.50
2018-01-17T12:40:50.844Z,6.97
2018-01-17T12:43:18.468Z,6.30
2018-01-17T12:45:46.031Z,6.47
2018-01-17T12:48:13.432Z,6.53
2018-01-17T12:50:41.149Z,7.80
2018-01-17T12:53:08.619Z,7.60
2018-01-17T12:55:36.112Z,6.50
2018-01-17T12:58:03.528Z,6.40
2018-01-17T13:00:31.077Z,6.93
2018-01-17T13:02:58.572Z,7.50
2018-01-17T13:05:26.196Z,7.77
2018-01-17T13:07:53.758Z,6.97
2018-01-17T13:10:21.315Z,7.50
2018-01-17T13:12:48.812Z,7.37
2018-01-17T13:15:16.330Z,6.53
2018-01-17T13:17:43.889Z,7.70
2018-01-17T13:20:11.492Z,7.63
2018-01-17T13:22:39.111Z,8.13
2018-01-17T13:25:06.604Z,9.00
2018-01-17T13:27:34.247Z,7.30
2018-01-17T13:30:01.789Z,7.87
2018-01-17T13:32:29.349Z,7.40
2018-01-17T13:34:56.908Z,8.37
2018-01-17T13:37:24.467Z,7.80
2018-01-17T13:39:52.027Z,8.27
2018-01-17T13:42:19.588Z,8.13
2018-01-17T13:44:47.248Z,7.90
2018-01-17T13:47:14.809Z,8.93
2018-01-17T13:49:42.301Z,8.60
2018-01-17T13:52:09.926Z,8.13
2018-01-17T13:54:37.486Z,8.17
2018-01-17T13:57:04.987Z,10.13
2018-01-17T13:59:32.502Z,8.77
2018-01-17T14:02:00.062Z,8.30
2018-01-17T14:04:27.621Z,10.13
2018-01-17T14:06:55.180Z,10.53
2018-01-17T14:09:22.676Z,7.70
2018-01-17T14:11:50.080Z,9.27
2018-01-17T14:14:17.654Z,9.07
2018-01-17T14:16:45.096Z,8.87
2018-01-17T14:19:12.671Z,10.33
2018-01-17T14:21:40.231Z,10.40
2018-01-17T14:24:07.790Z,9.57
2018-01-17T14:26:35.348Z,8.57
2018-01-17T14:29:02.909Z,9.50
2018-01-17T14:31:30.471Z,8.67
2018-01-17T14:33:57.965Z,7.83
2018-01-17T14:36:25.587Z,8.23
2018-01-17T14:38:53.145Z,6.57
2018-01-17T14:41:20.582Z,7.20
2018-01-17T14:43:48.163Z,7.90
2018-01-17T14:46:15.723Z,6.93
2018-01-17T14:48:43.281Z,5.33
2018-01-17T14:51:10.979Z,5.80
2018-01-17T14:53:38.502Z,6.40
2018-01-17T14:56:06.063Z,6.13
2018-01-17T14:58:33.621Z,5.57
2018-01-17T15:01:01.124Z,5.40
2018-01-17T15:03:28.578Z,5.63
2018-01-17T15:05:56.025Z,4.80
2018-01-17T15:08:23.493Z,5.07
2018-01-17T15:10:50.947Z,4.70
2018-01-17T15:13:18.465Z,4.83
2018-01-17T15:15:45.864Z,5.70
2018-01-17T15:18:14.001Z,4.80
2018-01-17T15:20:41.554Z,4.70
2018-01-17T15:23:09.049Z,4.10
2018-01-17T15:25:36.570Z,4.10
2018-01-17T15:28:03.977Z,4.13
2018-01-17T15:30:31.586Z,4.90
2018-01-17T15:32:58.988Z,3.17
2018-01-17T15:35:26.552Z,4.47
2018-01-17T15:37:54.163Z,3.23
2018-01-17T15:40:21.722Z,3.57
2018-01-17T15:42:49.291Z,4.80
2018-01-17T15:45:16.844Z,4.77
2018-01-17T15:47:44.331Z,5.30
2018-01-17T15:50:13.294Z,4.30
2018-01-17T15:52:40.852Z,5.50
2018-01-17T15:55:08.411Z,4.87
2018-01-17T15:57:36.072Z,4.67
2018-01-17T16:00:03.564Z,5.30
2018-01-17T16:02:31.025Z,5.23
2018-01-17T16:04:58.546Z,4.90
2018-01-17T16:07:26.040Z,5.30
2018-01-17T16:09:53.439Z,5.93
2018-01-17T16:12:21.020Z,5.43
2018-01-17T16:14:48.784Z,5.23
2018-01-17T16:17:16.344Z,5.10
2018-01-17T16:19:43.906Z,5.60
2018-01-17T16:22:11.353Z,5.63
2018-01-17T16:24:38.760Z,4.90
2018-01-17T16:27:06.151Z,5.73
2018-01-17T16:29:33.729Z,4.93
2018-01-17T16:32:01.224Z,6.50
2018-01-17T16:34:28.717Z,6.07
2018-01-17T16:36:56.408Z,6.20
2018-01-17T16:39:23.967Z,6.80
2018-01-17T16:41:51.526Z,7.80
2018-01-17T16:44:19.020Z,6.87
2018-01-17T16:46:46.585Z,6.20
2018-01-17T16:49:14.103Z,6.70
2018-01-17T16:51:41.662Z,5.90
2018-01-17T16:54:09.152Z,6.83
2018-01-17T16:56:36.612Z,6.17
2018-01-17T16:59:04.180Z,5.10
2018-01-17T17:01:31.693Z,5.07
2018-01-17T17:03:59.157Z,6.37
2018-01-17T17:06:26.713Z,5.03
2018-01-17T17:08:54.272Z,5.50
2018-01-17T17:11:21.832Z,5.40
2018-01-17T17:13:49.391Z,4.67
2018-01-17T17:16:16.951Z,5.10
2018-01-17T17:18:44.448Z,4.80
2018-01-17T17:21:11.965Z,4.90
2018-01-17T17:23:39.475Z,3.87
2018-01-17T17:26:07.187Z,5.60
2018-01-17T17:28:34.692Z,5.53
2018-01-17T17:31:02.253Z,4.50
2018-01-17T17:33:29.761Z,4.93
2018-01-17T17:35:58.052Z,5.00
2018-01-17T17:38:25.456Z,5.47
2018-01-17T17:40:53.002Z,4.60
2018-01-17T17:43:20.613Z,4.77
2018-01-17T17:45:48.174Z,5.20
2018-01-17T17:48:15.667Z,4.83
2018-01-17T17:50:44.316Z,5.97
2018-01-17T17:53:13.609Z,5.13
2018-01-17T17:55:42.501Z,5.80
2018-01-17T17:58:11.148Z,6.20
2018-01-17T18:00:39.867Z,5.63
2018-01-17T18:03:08.053Z,6.00
2018-01-17T18:05:36.855Z,5.53
2018-01-17T18:08:04.449Z,5.40
2018-01-17T18:10:31.907Z,5.30
2018-01-17T18:12:59.417Z,5.20
2018-01-17T18:15:26.976Z,4.03
2018-01-17T18:17:54.492Z,4.90
2018-01-17T18:20:21.992Z,4.37
2018-01-17T18:22:49.552Z,4.00
2018-01-17T18:25:17.044Z,4.33
2018-01-17T18:27:44.573Z,3.93
2018-01-17T18:30:12.128Z,4.33
2018-01-17T18:32:39.619Z,4.97
2018-01-17T18:35:07.145Z,4.90
2018-01-17T18:37:34.602Z,5.50
2018-01-17T18:40:02.096Z,4.60
2018-01-17T18:42:29.542Z,4.97
2018-01-17T18:44:57.177Z,5.77
2018-01-17T18:47:24.736Z,5.00
2018-01-17T18:49:52.296Z,5.40
2018-01-17T18:52:19.855Z,6.93
2018-01-17T18:54:47.296Z,6.43
2018-01-17T18:57:14.872Z,6.07
2018-01-17T18:59:42.330Z,5.10
2018-01-17T19:02:09.821Z,6.10
2018-01-17T19:04:37.346Z,5.90
2018-01-17T19:07:04.803Z,6.77
2018-01-17T19:09:32.300Z,7.17
2018-01-17T19:11:59.824Z,7.97
2018-01-17T19:14:27.379Z,6.87
2018-01-17T19:16:54.873Z,6.90
2018-01-17T19:19:22.394Z,8.20
2018-01-17T19:21:49.954Z,8.20
2018-01-17T19:24:18.428Z,7.40
2018-01-17T19:26:45.831Z,8.07
2018-01-17T19:29:13.352Z,9.67
2018-01-17T19:31:40.913Z,9.90
2018-01-17T19:34:08.470Z,9.33
2018-01-17T19:36:36.029Z,8.53
2018-01-17T19:39:03.587Z,9.50
2018-01-17T19:41:31.249Z,8.63
2018-01-17T19:43:58.645Z,8.70
2018-01-17T19:46:26.203Z,8.23
2018-01-17T19:48:53.645Z,8.87
2018-01-17T19:51:21.112Z,9.03
2018-01-17T19:53:48.637Z,9.70
2018-01-17T19:56:16.196Z,9.40
2018-01-17T19:58:43.756Z,9.20
2018-01-17T20:01:11.315Z,8.20
2018-01-17T20:03:38.784Z,8.53
2018-01-17T20:06:06.331Z,9.03
2018-01-17T20:08:33.736Z,10.00
2018-01-17T20:11:01.450Z,8.80
2018-01-17T20:13:29.018Z,9.00
2018-01-17T20:15:56.504Z,8.47
2018-01-17T20:18:24.026Z,10.00
2018-01-17T20:20:51.709Z,7.97
2018-01-17T20:23:19.451Z,8.93
2018-01-17T20:25:47.114Z,8.67
2018-01-17T20:28:14.715Z,9.63
2018-01-17T20:30:42.287Z,9.30
2018-01-17T20:33:09.950Z,8.57
2018-01-17T20:35:37.659Z,9.33
2018-01-17T20:38:05.152Z,8.00
2018-01-17T20:40:33.085Z,8.10
2018-01-17T20:43:00.646Z,7.40
2018-01-17T20:45:28.233Z,8.17
2018-01-17T20:47:55.866Z,8.63
2018-01-17T20:50:23.360Z,7.37
2018-01-17T20:52:50.987Z,7.77
2018-01-17T20:55:18.649Z,8.00
2018-01-17T20:57:46.253Z,8.37
2018-01-17T21:00:13.806Z,7.90
2018-01-17T21:02:41.324Z,7.87
2018-01-17T21:05:08.768Z,6.37
2018-01-17T21:07:36.276Z,8.40
2018-01-17T21:10:03.806Z,7.10
2018-01-17T21:12:31.293Z,6.67
2018-01-17T21:14:59.022Z,7.87
2018-01-17T21:17:26.626Z,7.50
2018-01-17T21:19:54.242Z,7.40
2018-01-17T21:22:21.804Z,6.47
2018-01-17T21:24:49.358Z,7.00
2018-01-17T21:27:16.852Z,6.60
2018-01-17T21:29:44.376Z,7.50
2018-01-17T21:32:11.934Z,8.43
2018-01-17T21:34:39.495Z,7.10
2018-01-17T21:37:07.056Z,7.07
2018-01-17T21:39:34.617Z,6.40
2018-01-17T21:42:02.204Z,7.40
2018-01-17T21:44:35.415Z,7.13
2018-01-17T21:47:03.051Z,7.33
2018-01-17T21:49:30.688Z,6.57
2018-01-17T21:51:58.189Z,7.17
2018-01-17T21:54:25.704Z,6.53
2018-01-17T21:56:53.165Z,7.97
2018-01-17T21:59:20.720Z,6.23
2018-01-17T22:01:48.229Z,6.73
2018-01-17T22:04:15.663Z,6.40
2018-01-17T22:06:43.128Z,6.83
2018-01-17T22:09:10.650Z,5.93
2018-01-17T22:11:38.124Z,6.20
2018-01-17T22:14:05.611Z,6.53
2018-01-17T22:16:33.124Z,7.90
2018-01-17T22:19:00.647Z,7.10
2018-01-17T22:21:28.143Z,5.20
2018-01-17T22:23:55.701Z,6.57
2018-01-17T22:26:23.260Z,6.00
2018-01-17T22:28:50.764Z,6.80
2018-01-17T22:31:18.207Z,6.67
2018-01-17T22:33:45.732Z,6.10
2018-01-17T22:36:13.292Z,4.63
2018-01-17T22:38:40.852Z,3.93
2018-01-17T22:41:08.344Z,4.90
2018-01-17T22:43:35.868Z,4.80
2018-01-17T22:46:03.427Z,4.83
2018-01-17T22:48:30.988Z,4.90
2018-01-17T22:50:58.389Z,5.60
2018-01-17T22:53:26.004Z,4.47
2018-01-17T22:55:53.562Z,5.13
2018-01-17T22:58:21.123Z,5.20
2018-01-17T23:00:48.888Z,5.53
2018-01-17T23:03:16.445Z,5.27
2018-01-17T23:05:43.903Z,4.70
2018-01-17T23:08:11.335Z,4.90
2018-01-17T23:10:38.864Z,4.13
2018-01-17T23:13:06.312Z,4.70
2018-01-17T23:15:33.766Z,4.73
2018-01-17T23:18:01.222Z,4.77
2018-01-17T23:20:28.679Z,4.10
2018-01-17T23:22:56.137Z,4.70
2018-01-17T23:25:23.764Z,3.87
2018-01-17T23:27:51.255Z,3.63
2018-01-17T23:30:18.888Z,4.70
2018-01-17T23:32:46.292Z,3.37
2018-01-17T23:35:13.797Z,3.30
2018-01-17T23:37:41.289Z,3.50
2018-01-17T23:40:08.712Z,3.10
2018-01-17T23:42:36.271Z,3.10
2018-01-17T23:45:04.698Z,3.20
2018-01-17T23:47:32.142Z,2.53
2018-01-17T23:49:59.665Z,2.70
2018-01-17T23:52:27.532Z,3.17
2018-01-17T23:54:55.025Z,3.30
2018-01-17T23:57:23.382Z,3.97
2018-01-17T23:59:50.927Z,3.60
